createdAt,value
2023-04-05T00:01:49.693Z,12.63
2023-04-05T00:07:11.559Z,13.10
2023-04-05T00:12:33.425Z,13.23
2023-04-05T00:17:56.125Z,13.60
2023-04-05T00:23:18.318Z,18.77
2023-04-05T00:28:40.336Z,13.60
2023-04-05T00:34:02.480Z,15.80
2023-04-05T00:39:24.425Z,14.43
2023-04-05T00:44:46.291Z,11.98
2023-04-05T00:50:09.783Z,16.33
2023-04-05T00:55:31.747Z,15.75
2023-04-05T01:01:21.230Z,15.05
2023-04-05T01:06:48.571Z,16.75
2023-04-05T01:12:12.730Z,21.13
2023-04-05T01:17:34.712Z,19.05
2023-04-05T01:23:32.057Z,19.63
2023-04-05T01:28:56.564Z,18.05
2023-04-05T01:34:42.750Z,18.07
2023-04-05T01:40:05.505Z,20.67
2023-04-05T01:45:27.471Z,19.70
2023-04-05T01:50:49.372Z,20.67
2023-04-05T01:56:11.215Z,24.20
2023-04-05T02:01:33.184Z,19.27
2023-04-05T02:06:55.175Z,39.70
2023-04-05T02:12:17.050Z,20.13
2023-04-05T02:17:39.050Z,24.95
2023-04-05T02:23:00.963Z,18.83
2023-04-05T02:28:22.817Z,18.33
2023-04-05T02:33:44.644Z,22.20
2023-04-05T02:39:06.531Z,21.65
2023-04-05T02:44:28.481Z,15.32
2023-04-05T02:49:50.446Z,18.52
2023-04-05T02:55:12.339Z,17.38
2023-04-05T03:00:34.827Z,18.13
2023-04-05T03:06:02.374Z,18.88
2023-04-05T03:11:24.262Z,23.35
2023-04-05T03:16:46.147Z,17.80
2023-04-05T03:22:08.264Z,14.43
2023-04-05T03:27:30.136Z,18.55
2023-04-05T03:32:52.044Z,15.75
2023-04-05T03:38:14.213Z,14.57
2023-04-05T03:43:36.060Z,14.55
2023-04-05T03:49:00.399Z,18.63
2023-04-05T03:54:22.296Z,15.10
2023-04-05T03:59:44.211Z,14.90
2023-04-05T04:05:06.428Z,14.98
2023-04-05T04:10:28.426Z,13.98
2023-04-05T04:15:50.277Z,16.33
2023-04-05T04:21:12.126Z,12.85
2023-04-05T04:26:33.965Z,12.70
2023-04-05T04:31:55.896Z,15.27
2023-04-05T04:37:18.183Z,13.93
2023-04-05T04:42:40.058Z,13.13
2023-04-05T04:48:01.949Z,18.40
2023-04-05T04:53:24.392Z,15.73
2023-04-05T04:58:46.437Z,14.13
2023-04-05T05:04:08.328Z,17.15
2023-04-05T05:09:30.271Z,17.10
2023-04-05T05:14:52.468Z,20.40
2023-04-05T05:20:14.359Z,23.75
2023-04-05T05:25:37.318Z,16.55
2023-04-05T05:31:00.295Z,16.08
2023-04-05T05:36:22.395Z,15.50
2023-04-05T05:41:45.119Z,11.20
2023-04-05T05:47:07.060Z,13.02
2023-04-05T05:52:28.984Z,8.93
2023-04-05T05:57:50.894Z,16.00
2023-04-05T06:03:12.872Z,15.00
2023-04-05T06:08:34.997Z,15.70
2023-04-05T06:13:56.916Z,7.15
2023-04-05T06:19:18.962Z,8.88
2023-04-05T06:24:40.802Z,14.93
2023-04-05T06:30:03.604Z,15.85
2023-04-05T06:35:25.944Z,17.00
2023-04-05T06:40:49.056Z,8.68
2023-04-05T06:46:10.897Z,14.27
2023-04-05T06:51:32.747Z,14.43
2023-04-05T06:56:54.552Z,14.90
2023-04-05T07:02:16.429Z,16.73
2023-04-05T07:07:42.499Z,8.55
2023-04-05T07:13:04.295Z,8.45
2023-04-05T07:18:26.167Z,11.70
2023-04-05T07:23:48.073Z,8.15
2023-04-05T07:29:11.104Z,6.93
2023-04-05T07:34:33.906Z,11.43
2023-04-05T07:39:55.879Z,10.65
2023-04-05T07:45:17.821Z,11.45
2023-04-05T07:50:39.955Z,11.15
2023-04-05T07:56:09.426Z,9.40
2023-04-05T08:01:31.225Z,12.57
2023-04-05T08:06:53.054Z,11.63
2023-04-05T08:12:14.871Z,12.88
2023-04-05T08:17:36.749Z,11.07
2023-04-05T08:22:58.694Z,13.00
2023-04-05T08:28:20.823Z,13.57
2023-04-05T08:33:42.646Z,11.63
2023-04-05T08:39:04.466Z,10.52
2023-04-05T08:44:26.950Z,11.32
2023-04-05T08:49:49.354Z,14.77
2023-04-05T08:55:11.204Z,15.75
2023-04-05T09:00:33.174Z,16.00
2023-04-05T09:05:58.374Z,10.55
2023-04-05T09:11:20.382Z,11.85
2023-04-05T09:16:42.540Z,11.93
2023-04-05T09:22:04.395Z,9.30
2023-04-05T09:27:26.247Z,8.23
2023-04-05T09:32:48.127Z,10.68
2023-04-05T09:38:10.303Z,9.50
2023-04-05T09:43:39.836Z,10.98
2023-04-05T09:49:01.746Z,13.35
2023-04-05T09:54:23.608Z,11.75
2023-04-05T09:59:46.656Z,9.68
2023-04-05T10:05:10.392Z,10.73
2023-04-05T10:10:38.051Z,8.57
2023-04-05T10:16:01.979Z,7.70
2023-04-05T10:21:33.661Z,5.82
2023-04-05T10:27:04.849Z,6.90
2023-04-05T10:32:52.958Z,8.32
2023-04-05T10:38:29.013Z,7.97
2023-04-05T10:43:53.256Z,8.13
2023-04-05T10:49:37.082Z,8.02
2023-04-05T10:54:59.565Z,7.93
2023-04-05T11:00:23.344Z,7.63
2023-04-05T11:05:45.288Z,6.15
2023-04-05T11:11:07.388Z,8.40
2023-04-05T11:16:39.831Z,7.45
2023-04-05T11:22:02.005Z,8.07
2023-04-05T11:27:32.415Z,8.60
2023-04-05T11:32:54.288Z,5.47
2023-04-05T11:38:22.318Z,9.30
2023-04-05T11:43:45.106Z,8.57
2023-04-05T11:49:07.584Z,6.47
2023-04-05T11:54:33.537Z,4.43
2023-04-05T11:59:55.429Z,6.43
2023-04-05T12:05:17.331Z,8.68
2023-04-05T12:10:39.306Z,6.72
2023-04-05T12:16:02.858Z,9.45
2023-04-05T12:21:25.749Z,8.18
2023-04-05T12:26:47.578Z,9.10
2023-04-05T12:32:10.994Z,6.30
2023-04-05T12:37:34.967Z,7.22
2023-04-05T12:43:07.436Z,6.75
2023-04-05T12:48:29.318Z,7.13
2023-04-05T12:53:51.151Z,10.27
2023-04-05T12:59:13.031Z,11.38
2023-04-05T13:04:34.985Z,7.43
2023-04-05T13:09:56.815Z,5.80
2023-04-05T13:15:19.236Z,8.13
2023-04-05T13:20:42.561Z,7.65
2023-04-05T13:26:05.612Z,6.63
2023-04-05T13:31:27.556Z,5.45
2023-04-05T13:36:49.496Z,11.15
2023-04-05T13:42:11.402Z,5.93
2023-04-05T13:47:33.201Z,7.07
2023-04-05T13:52:55.083Z,6.60
2023-04-05T13:58:16.974Z,7.80
2023-04-05T14:03:38.950Z,6.85
2023-04-05T14:09:00.836Z,7.50
2023-04-05T14:14:22.677Z,7.07
2023-04-05T14:19:44.555Z,6.40
2023-04-05T14:25:06.574Z,8.77
2023-04-05T14:30:28.536Z,6.32
2023-04-05T14:35:50.484Z,10.00
2023-04-05T14:41:12.376Z,9.70
2023-04-05T14:46:34.302Z,7.97
2023-04-05T14:51:56.166Z,9.75
2023-04-05T14:57:18.109Z,7.10
2023-04-05T15:02:40.146Z,10.32
2023-04-05T15:08:02.403Z,9.70
2023-04-05T15:13:24.360Z,7.47
2023-04-05T15:18:46.245Z,7.50
2023-04-05T15:24:08.124Z,8.50
2023-04-05T15:29:31.411Z,8.35
2023-04-05T15:34:53.251Z,5.97
2023-04-05T15:40:15.208Z,7.32
2023-04-05T15:45:37.058Z,7.28
2023-04-05T15:50:58.894Z,7.88
2023-04-05T15:56:20.897Z,5.93
2023-04-05T16:01:42.860Z,7.40
2023-04-05T16:07:05.007Z,5.55
2023-04-05T16:12:26.897Z,9.65
2023-04-05T16:17:48.770Z,8.48
2023-04-05T16:23:10.791Z,11.10
2023-04-05T16:28:32.721Z,10.13
2023-04-05T16:33:54.649Z,10.05
2023-04-05T16:39:16.486Z,12.73
2023-04-05T16:44:38.359Z,10.00
2023-04-05T16:50:00.312Z,6.22
2023-04-05T16:55:22.147Z,8.68
2023-04-05T17:00:44.052Z,7.38
2023-04-05T17:06:06.107Z,7.25
2023-04-05T17:11:28.253Z,7.95
2023-04-05T17:16:50.232Z,10.00
2023-04-05T17:22:13.599Z,9.40
2023-04-05T17:27:35.485Z,9.25
2023-04-05T17:32:57.404Z,7.53
2023-04-05T17:38:19.257Z,14.73
2023-04-05T17:43:41.059Z,8.43
2023-04-05T17:49:03.210Z,9.80
2023-04-05T17:54:25.163Z,13.23
2023-04-05T17:59:46.999Z,16.13
2023-04-05T18:05:09.144Z,12.05
2023-04-05T18:10:30.990Z,13.77
2023-04-05T18:15:59.561Z,13.95
2023-04-05T18:21:21.394Z,13.18
2023-04-05T18:26:43.480Z,13.65
2023-04-05T18:32:07.392Z,14.30
2023-04-05T18:37:29.268Z,16.20
2023-04-05T18:42:51.084Z,17.80
2023-04-05T18:48:13.043Z,13.85
2023-04-05T18:53:34.860Z,17.48
2023-04-05T18:58:56.911Z,14.88
2023-04-05T19:04:18.839Z,15.40
2023-04-05T19:09:40.690Z,19.10
2023-04-05T19:15:02.740Z,19.05
2023-04-05T19:20:24.655Z,15.57
2023-04-05T19:25:46.682Z,15.57
2023-04-05T19:31:10.178Z,16.65
2023-04-05T19:36:35.876Z,16.50
2023-04-05T19:41:58.141Z,20.83
2023-04-05T19:47:21.191Z,14.73
2023-04-05T19:52:49.444Z,17.33
2023-04-05T19:58:11.670Z,10.52
2023-04-05T20:03:39.072Z,10.73
2023-04-05T20:09:05.399Z,12.13
2023-04-05T20:19:57.047Z,12.88
2023-04-05T20:25:39.078Z,9.15
2023-04-05T20:31:16.193Z,15.30
2023-04-05T20:36:44.859Z,11.60
2023-04-05T20:42:06.727Z,9.68
2023-04-05T20:47:29.362Z,16.25
2023-04-05T20:52:51.195Z,14.38
2023-04-05T20:58:13.009Z,15.07
2023-04-05T21:03:37.528Z,11.25
2023-04-05T21:08:59.579Z,9.50
2023-04-05T21:14:21.840Z,16.92
2023-04-05T21:19:43.833Z,17.25
2023-04-05T21:25:06.196Z,22.08
2023-04-05T21:30:28.888Z,14.77
2023-04-05T21:35:50.942Z,15.10
2023-04-05T21:41:13.013Z,13.60
2023-04-05T21:46:34.879Z,10.48
2023-04-05T21:51:56.795Z,11.75
2023-04-05T21:57:18.695Z,13.95
2023-04-05T22:02:40.918Z,11.60
2023-04-05T22:08:02.830Z,12.23
2023-04-05T22:13:24.840Z,15.32
2023-04-05T22:18:46.689Z,16.70
2023-04-05T22:24:09.108Z,16.98
2023-04-05T22:29:30.994Z,16.80
2023-04-05T22:34:52.817Z,16.20
2023-04-05T22:40:14.690Z,17.10
2023-04-05T22:45:36.529Z,12.38
2023-04-05T22:50:58.430Z,13.27
2023-04-05T22:56:20.256Z,19.17
2023-04-05T23:01:42.318Z,18.20
2023-04-05T23:07:04.218Z,18.20
2023-04-05T23:12:26.093Z,15.57
2023-04-05T23:17:48.001Z,17.45
2023-04-05T23:23:09.939Z,16.70
2023-04-05T23:28:31.739Z,17.02
2023-04-05T23:33:54.575Z,19.05
2023-04-05T23:39:16.447Z,17.08
2023-04-05T23:44:38.344Z,18.45
2023-04-05T23:50:00.224Z,14.45
2023-04-05T23:55:22.041Z,16.77
